Pagina principale
METAR-TAF:

METAR-TAF

Aeroporti :

Les Ajoncs

La Roche-sur-Yon, Francia

latitudine: 46-42N, longitudine: 001-23W, altezza: 90 m

Osservazione

Il bollettino è stato emesso 26 minuti fa, alle 04:30 UTC
Vento 4 kt da sud
Temperature 11°C
Umidità 100%
Pressione 1021 hPa
Visibilità 10 km o più
Poco nuvoloso ad un'altezza di 1500 ft

METAR: LFRI 160430Z AUTO 18004KT 9999 FEW015 11/11 Q1021

Ora: 06:56 (04:56 UTC)

Previsione

Il bollettino è stato emesso 11 ore e 56 minuti fa, alle 17:00 UTC
Previsione valida dal 15 alle 18 UTC al 16 alle 18 UTC
Vento 10 kt da ovest/sud-ovest
Visibilità 10 km o più
Nuvoloso ad un'altezza di 2000 ft
Temporaneamente
dal 15 alle 21 UTC al 16 alle 06 UTC
Nuvoloso ad un'altezza di 900 ft
Evoluzione graduale
dal 16 alle 09 UTC al 16 alle 12 UTC
Visibilità 10 km o più
nessuna nube inferiore a 1500 m e nessun cumulonembo

TAF: LFRI 151700Z 1518/1618 24010KT 9999 BKN020 TEMPO 1521/1606 BKN009 BECMG 1609/1612 CAVOK

Osservazioni e previsioni meteorologiche di più di 4000 aeroporti (messaggi METAR e TAF).

Le stazioni disponibili sono rappresentate dai dischi gialli e rossi sulla carta.

Puntare il mouse per vedere il nome della stazione.

Clicca sopra per visualizzare le osservazioni e previsioni meteorologiche.

Per cambiare la mappa : fare clic sui pulsanti verdi con una croce nera per ingrandire, il pulsante verde con un trattino per diminuire, o sulla freccia verde per le mappe adiacenti.


METAR-TAF: